Time;durP1;ratioP1;P1;durP2;ratioP2;P2;SDS_P1;SDS_P2;PMS_P1;PMS_P2;Temp;Humidity;BMP_temperature;BMP_pressure;BME280_temperature;BME280_humidity;BME280_pressure;Samples;Min_cycle;Max_cycle;Signal;HPM_P1;HPM_P2
2024/02/17 00:00:20;;;;;;;45.70;8.75;;;14.20;98.90;;;;;;5045932;28;20029;-50
2024/02/17 00:02:46;;;;;;;41.35;9.07;;;14.20;98.70;;;;;;5047173;28;20036;-51
2024/02/17 00:05:12;;;;;;;49.85;9.05;;;14.20;98.70;;;;;;5047123;28;20405;-51
2024/02/17 00:07:37;;;;;;;34.20;8.32;;;14.20;98.80;;;;;;5029047;28;20033;-50
2024/02/17 00:10:07;;;;;;;37.72;8.63;;;14.20;99.00;;;;;;5045631;28;20031;-50
2024/02/17 00:12:32;;;;;;;41.92;7.35;;;14.20;98.70;;;;;;5046755;28;20033;-50
2024/02/17 00:14:58;;;;;;;35.35;7.50;;;14.20;98.70;;;;;;5046969;28;20032;-50
2024/02/17 00:17:23;;;;;;;40.55;8.25;;;14.20;98.80;;;;;;5029003;28;20029;-50
2024/02/17 00:19:49;;;;;;;47.30;7.97;;;14.20;98.80;;;;;;5029040;28;20029;-51
2024/02/17 00:22:16;;;;;;;33.95;7.93;;;14.10;98.80;;;;;;5046674;28;20037;-51
2024/02/17 00:24:41;;;;;;;37.78;7.93;;;14.20;98.80;;;;;;5045783;28;20029;-51
2024/02/17 00:27:07;;;;;;;36.17;7.50;;;14.10;98.70;;;;;;5046687;28;20025;-50
2024/02/17 00:29:33;;;;;;;38.90;7.30;;;14.10;98.80;;;;;;5045461;28;20026;-51
2024/02/17 00:31:59;;;;;;;34.72;7.50;;;14.10;98.80;;;;;;5045153;28;20037;-51
2024/02/17 00:34:24;;;;;;;35.05;6.90;;;14.10;98.90;;;;;;5044912;28;20100;-50
2024/02/17 00:36:50;;;;;;;34.75;7.18;;;14.10;98.90;;;;;;5046350;28;20080;-50
2024/02/17 00:39:16;;;;;;;42.53;8.00;;;14.00;98.90;;;;;;5046585;28;20053;-50
2024/02/17 00:41:42;;;;;;;33.58;7.03;;;14.00;98.90;;;;;;5045230;28;20029;-51
2024/02/17 00:44:08;;;;;;;33.58;7.57;;;14.00;98.90;;;;;;5029171;28;20079;-51
2024/02/17 00:46:34;;;;;;;42.58;7.45;;;14.00;99.00;;;;;;5028838;28;20025;-50
2024/02/17 00:49:00;;;;;;;33.13;6.90;;;14.00;99.00;;;;;;5045323;28;20044;-50
2024/02/17 00:51:26;;;;;;;36.78;7.22;;;14.00;99.10;;;;;;5028598;28;20025;-50
2024/02/17 00:53:52;;;;;;;31.50;6.85;;;14.00;99.10;;;;;;5028630;28;20053;-51
2024/02/17 00:56:21;;;;;;;25.95;7.38;;;14.00;99.00;;;;;;5028640;28;20385;-51
2024/02/17 00:58:46;;;;;;;34.38;7.18;;;14.00;99.00;;;;;;5046733;28;20022;-50
2024/02/17 01:01:12;;;;;;;30.67;6.75;;;14.00;99.00;;;;;;5046251;28;20536;-50
2024/02/17 01:03:37;;;;;;;27.08;5.97;;;14.00;99.00;;;;;;5028608;28;20033;-50
2024/02/17 01:06:03;;;;;;;27.25;6.68;;;13.90;98.90;;;;;;5045148;28;20040;-50
2024/02/17 01:08:29;;;;;;;27.23;7.10;;;13.90;99.00;;;;;;5046075;28;20060;-50
2024/02/17 01:10:54;;;;;;;29.50;6.43;;;13.90;99.00;;;;;;5045080;28;20036;-51
2024/02/17 01:13:20;;;;;;;29.67;5.82;;;13.90;99.00;;;;;;5046383;28;20018;-51
2024/02/17 01:15:46;;;;;;;31.92;7.53;;;13.90;99.10;;;;;;5046224;28;20036;-50
2024/02/17 01:18:11;;;;;;;30.65;6.75;;;13.90;99.10;;;;;;5046355;28;20032;-51
2024/02/17 01:20:37;;;;;;;28.45;6.38;;;13.80;99.10;;;;;;5046146;28;20072;-50
2024/02/17 01:23:03;;;;;;;28.77;5.90;;;13.80;99.10;;;;;;5044893;28;20468;-51
2024/02/17 01:25:28;;;;;;;34.78;6.93;;;13.80;99.20;;;;;;5045938;28;20033;-51
2024/02/17 01:27:54;;;;;;;28.63;5.88;;;13.80;99.20;;;;;;5045776;28;20056;-50
2024/02/17 01:30:19;;;;;;;30.80;6.75;;;13.80;99.30;;;;;;5045904;28;20030;-51
2024/02/17 01:32:45;;;;;;;41.55;6.95;;;13.80;99.20;;;;;;5044455;28;20036;-50
2024/02/17 01:35:13;;;;;;;32.28;6.55;;;13.80;99.30;;;;;;5044830;28;20095;-51
2024/02/17 01:37:39;;;;;;;30.90;7.07;;;13.80;99.30;;;;;;5044744;28;20026;-50
2024/02/17 01:40:05;;;;;;;34.45;6.20;;;13.80;99.30;;;;;;5044852;28;20047;-50
2024/02/17 01:42:30;;;;;;;21.08;6.10;;;13.70;99.30;;;;;;5027992;28;20034;-51
2024/02/17 01:44:56;;;;;;;29.38;6.88;;;13.80;99.30;;;;;;5044701;28;20040;-51
2024/02/17 01:47:22;;;;;;;29.33;5.50;;;13.70;99.30;;;;;;5047804;28;20056;-50
2024/02/17 01:49:47;;;;;;;25.92;5.78;;;13.70;99.40;;;;;;5031854;28;20025;-50
2024/02/17 01:52:14;;;;;;;31.48;5.15;;;13.70;99.40;;;;;;5031875;28;20030;-50
2024/02/17 01:54:40;;;;;;;24.85;6.20;;;13.70;99.40;;;;;;5048363;28;20052;-50
2024/02/17 01:57:06;;;;;;;21.73;5.35;;;13.70;99.50;;;;;;5031768;28;20018;-51
2024/02/17 01:59:32;;;;;;;20.02;5.57;;;13.70;99.50;;;;;;5031489;28;20076;-51
2024/02/17 02:01:57;;;;;;;27.00;5.75;;;13.70;99.40;;;;;;5031604;28;20124;-50
2024/02/17 02:04:23;;;;;;;19.70;5.45;;;13.70;99.40;;;;;;5031679;28;20065;-51
2024/02/17 02:06:50;;;;;;;27.98;6.25;;;13.70;99.40;;;;;;5047999;28;20037;-51
2024/02/17 02:09:21;;;;;;;28.05;5.90;;;13.70;99.40;;;;;;5015160;28;20075;-50
2024/02/17 02:11:46;;;;;;;23.90;5.45;;;13.70;99.40;;;;;;5032267;28;20056;-50
2024/02/17 02:14:15;;;;;;;18.85;5.10;;;13.70;99.40;;;;;;5048283;28;20029;-51
2024/02/17 02:16:41;;;;;;;20.25;6.03;;;13.70;99.50;;;;;;5031293;28;20094;-50
2024/02/17 02:19:07;;;;;;;22.08;5.72;;;13.60;99.40;;;;;;5047858;28;20029;-50
2024/02/17 02:21:37;;;;;;;17.08;5.13;;;13.60;99.50;;;;;;5049040;28;20026;-50
2024/02/17 02:24:03;;;;;;;15.80;5.13;;;13.60;99.50;;;;;;5031828;28;20033;-51
2024/02/17 02:26:32;;;;;;;18.50;5.43;;;13.60;99.50;;;;;;5047656;28;20048;-50
2024/02/17 02:28:58;;;;;;;23.25;5.18;;;13.60;99.50;;;;;;5048962;28;20036;-51
2024/02/17 02:31:24;;;;;;;21.05;5.20;;;13.60;99.50;;;;;;5031124;28;20041;-50
2024/02/17 02:33:51;;;;;;;22.92;5.10;;;13.60;99.60;;;;;;5031065;28;20083;-50
2024/02/17 02:36:17;;;;;;;16.35;5.10;;;13.60;99.60;;;;;;5048684;28;20018;-50
2024/02/17 02:38:43;;;;;;;22.52;5.10;;;13.50;99.60;;;;;;5031075;28;20021;-50
2024/02/17 02:41:10;;;;;;;22.35;5.10;;;13.50;99.60;;;;;;5048634;28;20072;-51
2024/02/17 02:43:36;;;;;;;25.60;5.75;;;13.50;99.70;;;;;;5048857;28;20047;-50
2024/02/17 02:46:02;;;;;;;21.60;5.13;;;13.50;99.70;;;;;;5030737;28;20034;-50
2024/02/17 02:48:27;;;;;;;20.52;4.82;;;13.50;99.70;;;;;;5047153;28;20037;-51
2024/02/17 02:50:53;;;;;;;19.25;5.35;;;13.50;99.70;;;;;;5030658;28;20387;-50
2024/02/17 02:53:18;;;;;;;20.52;5.10;;;13.50;99.70;;;;;;5047137;28;20033;-50
2024/02/17 02:55:44;;;;;;;22.83;5.47;;;13.50;99.70;;;;;;5030636;28;20029;-50
2024/02/17 02:58:10;;;;;;;17.20;4.80;;;13.50;99.70;;;;;;5047790;28;20060;-50
2024/02/17 03:00:35;;;;;;;13.48;4.60;;;13.50;99.80;;;;;;5030550;28;20022;-51
2024/02/17 03:03:01;;;;;;;20.38;5.10;;;13.50;99.80;;;;;;5047145;28;20056;-51
2024/02/17 03:05:27;;;;;;;14.57;4.80;;;13.50;99.70;;;;;;5047033;28;20044;-50
2024/02/17 03:07:52;;;;;;;18.05;4.88;;;13.50;99.70;;;;;;5046987;28;20033;-51
2024/02/17 03:10:18;;;;;;;16.85;4.72;;;13.50;99.80;;;;;;5030520;28;20033;-50
2024/02/17 03:12:44;;;;;;;17.50;4.65;;;13.50;99.80;;;;;;5046790;28;20142;-50
2024/02/17 03:15:10;;;;;;;16.80;4.80;;;13.40;99.80;;;;;;5048127;28;20033;-51
2024/02/17 03:17:36;;;;;;;14.20;5.22;;;13.40;99.80;;;;;;5048057;28;20049;-51
2024/02/17 03:20:04;;;;;;;15.38;4.57;;;13.40;99.90;;;;;;5046767;28;20034;-50
2024/02/17 03:22:30;;;;;;;15.73;5.07;;;13.40;99.90;;;;;;5046732;28;20104;-51
2024/02/17 03:24:56;;;;;;;21.25;5.70;;;13.40;99.90;;;;;;5030332;28;20038;-50
2024/02/17 03:27:21;;;;;;;17.05;4.78;;;13.40;99.90;;;;;;5047896;28;20384;-50
2024/02/17 03:29:47;;;;;;;18.88;4.75;;;13.40;99.90;;;;;;5030183;28;20052;-50
2024/02/17 03:32:13;;;;;;;10.02;4.13;;;13.40;99.90;;;;;;5046269;28;20040;-50
2024/02/17 03:34:38;;;;;;;20.52;4.55;;;13.40;99.90;;;;;;5047662;28;20057;-51
2024/02/17 03:37:06;;;;;;;15.75;5.00;;;13.40;99.90;;;;;;5046271;28;20025;-51
2024/02/17 03:39:34;;;;;;;16.13;4.63;;;13.40;99.90;;;;;;5030109;28;20029;-50
2024/02/17 03:42:00;;;;;;;13.52;4.93;;;13.40;99.90;;;;;;5046390;28;20044;-50
2024/02/17 03:44:26;;;;;;;14.88;4.32;;;13.40;99.90;;;;;;5029648;28;20271;-50
2024/02/17 03:46:51;;;;;;;16.48;4.53;;;13.30;99.90;;;;;;5047396;28;20037;-51
2024/02/17 03:49:20;;;;;;;16.17;4.78;;;13.30;99.90;;;;;;5046218;28;20109;-51
2024/02/17 03:51:49;;;;;;;12.68;4.65;;;13.40;99.90;;;;;;5045996;28;20084;-50
2024/02/17 03:54:15;;;;;;;13.40;4.32;;;13.30;99.90;;;;;;5029639;28;20024;-51
2024/02/17 03:56:41;;;;;;;14.57;4.28;;;13.30;99.90;;;;;;5029590;28;20065;-51
2024/02/17 03:59:07;;;;;;;13.35;4.25;;;13.30;99.90;;;;;;5046040;28;20026;-50
2024/02/17 04:01:39;;;;;;;12.93;4.28;;;13.30;99.90;;;;;;5029769;28;20021;-50
2024/02/17 04:04:04;;;;;;;13.50;4.88;;;13.30;99.90;;;;;;5045580;28;20030;-51
2024/02/17 04:06:33;;;;;;;14.55;4.68;;;13.30;99.90;;;;;;5029424;28;20414;-50
2024/02/17 04:08:59;;;;;;;9.10;3.53;;;13.30;99.90;;;;;;5045160;28;20060;-51
2024/02/17 04:11:27;;;;;;;16.33;4.55;;;13.30;99.90;;;;;;5046578;28;20021;-50
2024/02/17 04:13:55;;;;;;;12.25;4.35;;;13.30;99.90;;;;;;5045476;28;20526;-50
2024/02/17 04:16:21;;;;;;;18.23;4.65;;;13.30;99.90;;;;;;5045616;28;20037;-50
2024/02/17 04:18:47;;;;;;;14.25;4.10;;;13.30;99.90;;;;;;5045666;28;20029;-50
2024/02/17 04:21:13;;;;;;;11.95;4.60;;;13.30;99.90;;;;;;5046621;28;20029;-50
2024/02/17 04:23:39;;;;;;;13.02;4.10;;;13.30;99.90;;;;;;5045576;28;20036;-50
2024/02/17 04:26:06;;;;;;;14.02;4.22;;;13.30;99.90;;;;;;5029031;28;20431;-50
2024/02/17 04:28:33;;;;;;;11.43;3.80;;;13.30;99.90;;;;;;5045489;28;20036;-51
2024/02/17 04:30:58;;;;;;;23.67;5.00;;;13.30;99.90;;;;;;5028989;28;20025;-51
2024/02/17 04:33:24;;;;;;;12.95;4.28;;;13.20;99.90;;;;;;5045087;28;20025;-51
2024/02/17 04:35:51;;;;;;;10.90;4.18;;;13.20;99.90;;;;;;5045413;28;20035;-50
2024/02/17 04:38:17;;;;;;;16.63;4.53;;;13.20;99.90;;;;;;5045355;28;20484;-50
2024/02/17 04:40:43;;;;;;;16.65;4.80;;;13.20;99.90;;;;;;5045462;28;20514;-50
2024/02/17 04:43:08;;;;;;;14.15;4.63;;;13.30;99.90;;;;;;5028998;28;20025;-51
2024/02/17 04:45:34;;;;;;;11.82;4.05;;;13.20;99.90;;;;;;5045084;28;20041;-51
2024/02/17 04:47:59;;;;;;;12.15;3.90;;;13.20;99.90;;;;;;5045195;28;20037;-50
2024/02/17 04:50:25;;;;;;;18.55;4.20;;;13.20;99.90;;;;;;5045243;28;20060;-50
2024/02/17 04:52:51;;;;;;;12.70;4.35;;;13.20;99.90;;;;;;5044900;28;20093;-51
2024/02/17 04:55:16;;;;;;;9.77;3.67;;;13.20;99.90;;;;;;5045020;28;20026;-50
2024/02/17 04:57:42;;;;;;;18.77;4.47;;;13.20;99.90;;;;;;5046426;28;20051;-50
2024/02/17 05:00:08;;;;;;;12.30;3.78;;;13.20;99.90;;;;;;5012082;28;20034;-51
2024/02/17 05:02:37;;;;;;;13.43;4.63;;;13.20;99.90;;;;;;5045451;28;20030;-51
2024/02/17 05:05:03;;;;;;;10.40;3.60;;;13.20;99.90;;;;;;5045422;28;20085;-50
2024/02/17 05:07:29;;;;;;;10.80;4.35;;;13.20;99.90;;;;;;5045061;28;20030;-51
2024/02/17 05:09:54;;;;;;;15.80;3.67;;;13.20;99.90;;;;;;5046192;28;20088;-50
2024/02/17 05:12:20;;;;;;;10.63;3.97;;;13.20;99.90;;;;;;5028347;28;20029;-51
2024/02/17 05:14:45;;;;;;;17.35;4.78;;;13.20;99.90;;;;;;5044984;28;20062;-51
2024/02/17 05:17:12;;;;;;;9.15;3.92;;;13.10;99.90;;;;;;5044569;28;20063;-51
2024/02/17 05:19:37;;;;;;;12.93;4.03;;;13.10;99.90;;;;;;5044860;28;20040;-50
2024/02/17 05:22:03;;;;;;;16.45;4.18;;;13.10;99.90;;;;;;5048058;28;20478;-50
2024/02/17 05:24:33;;;;;;;11.30;3.90;;;13.10;99.90;;;;;;5050417;28;20057;-51
2024/02/17 05:26:58;;;;;;;8.45;3.83;;;13.10;99.90;;;;;;5050146;28;20041;-51
2024/02/17 05:29:24;;;;;;;10.25;3.80;;;13.10;99.90;;;;;;5048724;28;20034;-51
2024/02/17 05:31:50;;;;;;;12.77;4.15;;;13.10;99.90;;;;;;5049586;28;20065;-50
2024/02/17 05:34:18;;;;;;;12.02;3.72;;;13.10;99.90;;;;;;5049809;28;20033;-50
2024/02/17 05:36:44;;;;;;;9.48;4.05;;;13.10;99.90;;;;;;5049803;28;20051;-50
2024/02/17 05:39:10;;;;;;;12.50;4.03;;;13.10;99.90;;;;;;5048522;28;20068;-51
2024/02/17 05:41:35;;;;;;;8.10;4.10;;;13.10;99.90;;;;;;5049666;28;20060;-50
2024/02/17 05:44:01;;;;;;;12.50;4.45;;;13.10;99.90;;;;;;5048494;28;20030;-51
2024/02/17 05:46:27;;;;;;;9.07;3.78;;;13.10;99.90;;;;;;5048064;28;20518;-50
2024/02/17 05:48:52;;;;;;;10.18;4.07;;;13.10;99.90;;;;;;5048414;28;20033;-50
2024/02/17 05:51:18;;;;;;;10.77;3.85;;;13.10;99.90;;;;;;5048354;28;20025;-51
2024/02/17 05:53:43;;;;;;;9.30;3.65;;;13.10;99.90;;;;;;5081882;28;20034;-50
2024/02/17 05:56:09;;;;;;;14.68;4.45;;;13.10;99.90;;;;;;5048251;28;20048;-50
2024/02/17 05:58:38;;;;;;;9.43;3.42;;;13.10;99.90;;;;;;5049720;28;20056;-50
2024/02/17 06:01:04;;;;;;;10.02;3.90;;;13.10;99.90;;;;;;5048074;28;20029;-51
2024/02/17 06:03:32;;;;;;;8.80;3.97;;;13.10;99.90;;;;;;5049490;28;20065;-50
2024/02/17 06:05:57;;;;;;;9.07;3.90;;;13.10;99.90;;;;;;5049257;28;20488;-51
2024/02/17 06:08:23;;;;;;;12.55;3.80;;;13.10;99.90;;;;;;5048075;28;20036;-50
2024/02/17 06:10:49;;;;;;;9.90;4.30;;;13.10;99.90;;;;;;5047894;28;20040;-51
2024/02/17 06:13:14;;;;;;;11.23;3.80;;;13.10;99.90;;;;;;5047814;28;20033;-50
2024/02/17 06:15:43;;;;;;;13.27;4.43;;;13.10;99.90;;;;;;5049198;28;20104;-51
2024/02/17 06:23:38;;;;;;;10.30;4.07;;;13.10;99.90;;;;;;5047920;28;20047;-51
2024/02/17 06:26:03;;;;;;;9.52;3.50;;;13.10;99.90;;;;;;5049029;28;20056;-50
2024/02/17 06:28:29;;;;;;;12.00;3.67;;;13.10;99.90;;;;;;5064449;28;20526;-50
2024/02/17 06:30:55;;;;;;;10.88;3.80;;;13.10;99.90;;;;;;5047705;28;20423;-50
2024/02/17 06:33:20;;;;;;;11.63;3.60;;;13.10;99.90;;;;;;5062782;28;20037;-50
2024/02/17 06:35:46;;;;;;;7.95;3.30;;;13.10;99.90;;;;;;5047553;28;20029;-50
2024/02/17 06:38:12;;;;;;;9.88;3.92;;;13.10;99.90;;;;;;5080792;28;20434;-50
2024/02/17 06:40:37;;;;;;;10.80;4.18;;;13.10;99.90;;;;;;5048620;28;20030;-50
2024/02/17 06:43:03;;;;;;;9.18;3.65;;;13.10;99.90;;;;;;5047870;28;20055;-50
2024/02/17 06:45:29;;;;;;;13.40;4.35;;;13.10;99.90;;;;;;5047551;28;20071;-51
2024/02/17 06:47:55;;;;;;;14.02;4.40;;;13.10;99.90;;;;;;5048338;28;20124;-51
2024/02/17 06:50:20;;;;;;;15.77;4.13;;;13.10;99.90;;;;;;5030353;28;20032;-50
2024/02/17 06:52:46;;;;;;;9.57;3.80;;;13.10;99.90;;;;;;5048514;28;20530;-50
2024/02/17 06:55:12;;;;;;;13.98;4.00;;;13.10;99.90;;;;;;5048248;28;20043;-50
2024/02/17 06:57:37;;;;;;;13.85;4.18;;;13.10;99.90;;;;;;5048428;28;20028;-51
2024/02/17 07:00:04;;;;;;;18.35;4.60;;;13.10;99.90;;;;;;5047110;28;20109;-50
2024/02/17 07:02:30;;;;;;;22.38;4.72;;;13.10;99.90;;;;;;5047084;28;20033;-50
2024/02/17 07:04:55;;;;;;;20.23;5.00;;;13.10;99.90;;;;;;5080126;28;20033;-50
2024/02/17 07:07:22;;;;;;;29.92;5.68;;;13.10;99.90;;;;;;5080108;28;20092;-50
2024/02/17 07:09:48;;;;;;;31.58;5.80;;;13.10;99.90;;;;;;5046863;28;20112;-51
2024/02/17 07:12:14;;;;;;;33.72;6.20;;;13.10;99.90;;;;;;5046631;28;20037;-50
2024/02/17 07:14:39;;;;;;;25.08;6.47;;;13.20;99.90;;;;;;5048023;28;20034;-50
2024/02/17 07:17:05;;;;;;;33.08;6.18;;;13.20;99.90;;;;;;5047880;28;20089;-51
2024/02/17 07:19:31;;;;;;;23.90;6.05;;;13.20;99.90;;;;;;5046516;28;20113;-51
2024/02/17 07:21:56;;;;;;;45.20;6.63;;;13.20;99.90;;;;;;5047444;28;20037;-50
2024/02/17 07:24:22;;;;;;;32.08;7.15;;;13.20;99.90;;;;;;5046323;28;20033;-50
2024/02/17 07:26:50;;;;;;;27.20;6.68;;;13.20;99.90;;;;;;5046441;28;20033;-50
2024/02/17 07:29:16;;;;;;;35.58;7.65;;;13.20;99.90;;;;;;5063494;28;20459;-50
2024/02/17 07:31:42;;;;;;;23.42;6.35;;;13.20;99.90;;;;;;5047461;28;20044;-50
2024/02/17 07:34:08;;;;;;;45.30;7.15;;;13.20;99.90;;;;;;5047735;28;20039;-50
2024/02/17 07:36:34;;;;;;;32.35;6.22;;;13.20;99.90;;;;;;5046351;28;20017;-50
2024/02/17 07:38:59;;;;;;;37.17;6.13;;;13.20;99.90;;;;;;5047662;28;20033;-50
2024/02/17 07:41:26;;;;;;;28.48;7.07;;;13.20;99.90;;;;;;5047349;28;20029;-50
2024/02/17 07:43:52;;;;;;;27.20;6.47;;;13.20;99.90;;;;;;5047330;28;20061;-50
2024/02/17 07:46:19;;;;;;;23.73;5.63;;;13.40;99.90;;;;;;5046202;28;20486;-50
2024/02/17 07:48:45;;;;;;;28.65;6.35;;;13.20;99.90;;;;;;5046078;28;20037;-50
2024/02/17 07:51:11;;;;;;;24.90;5.43;;;13.20;99.90;;;;;;5047185;28;20041;-50
2024/02/17 07:53:37;;;;;;;34.88;7.35;;;13.20;99.90;;;;;;5046051;28;20033;-50
2024/02/17 07:56:03;;;;;;;23.77;6.32;;;13.20;99.90;;;;;;5062555;28;20033;-50
2024/02/17 07:58:29;;;;;;;29.17;7.38;;;13.20;99.90;;;;;;5047317;28;20021;-51
2024/02/17 08:00:55;;;;;;;24.25;7.38;;;13.30;99.90;;;;;;5045813;28;20041;-50
2024/02/17 08:03:20;;;;;;;29.52;7.13;;;13.20;99.90;;;;;;5045954;28;20087;-50
2024/02/17 08:05:46;;;;;;;37.38;7.55;;;13.20;99.90;;;;;;5046786;28;20036;-50
2024/02/17 08:08:12;;;;;;;34.65;7.43;;;13.20;99.90;;;;;;5046911;28;20022;-50
2024/02/17 08:10:37;;;;;;;35.25;7.32;;;13.20;99.90;;;;;;5045635;28;20029;-50
2024/02/17 08:13:03;;;;;;;24.70;6.63;;;13.20;99.90;;;;;;5047067;28;20045;-50
2024/02/17 08:15:29;;;;;;;29.38;7.40;;;13.20;99.90;;;;;;5045857;28;20029;-50
2024/02/17 08:17:54;;;;;;;36.47;6.65;;;13.20;99.90;;;;;;5045447;28;20152;-50
2024/02/17 08:20:21;;;;;;;24.42;7.28;;;13.20;99.90;;;;;;5046141;28;20047;-50
2024/02/17 08:22:48;;;;;;;30.77;6.95;;;13.50;99.90;;;;;;5046482;28;20033;-50
2024/02/17 08:25:13;;;;;;;38.88;7.15;;;13.20;99.90;;;;;;5029221;28;20034;-50
2024/02/17 08:27:43;;;;;;;30.15;7.65;;;13.20;99.90;;;;;;5045477;28;20041;-50
2024/02/17 08:30:09;;;;;;;38.10;7.40;;;13.20;99.90;;;;;;5045467;28;20076;-50
2024/02/17 08:32:34;;;;;;;27.27;6.35;;;13.20;99.90;;;;;;5046448;28;20056;-50
2024/02/17 08:35:00;;;;;;;42.28;6.90;;;13.20;99.90;;;;;;5046610;28;20066;-50
2024/02/17 08:37:26;;;;;;;31.48;7.65;;;13.20;99.90;;;;;;5045279;28;20029;-50
2024/02/17 08:39:51;;;;;;;31.63;7.20;;;13.20;99.90;;;;;;5046271;28;20026;-50
2024/02/17 08:42:17;;;;;;;30.05;6.78;;;13.20;99.90;;;;;;5028692;28;20029;-50
2024/02/17 08:44:43;;;;;;;26.55;6.68;;;13.30;99.90;;;;;;5045265;28;20037;-50
2024/02/17 08:47:09;;;;;;;34.58;7.38;;;13.20;99.90;;;;;;5045091;28;20029;-51
2024/02/17 08:49:34;;;;;;;31.17;7.13;;;13.20;99.90;;;;;;5045455;28;20029;-50
2024/02/17 08:52:01;;;;;;;32.35;7.35;;;13.20;99.90;;;;;;5046166;28;20159;-51
2024/02/17 08:54:26;;;;;;;34.83;8.23;;;13.30;99.90;;;;;;5045071;28;20167;-51
2024/02/17 08:56:53;;;;;;;19.90;6.20;;;13.20;99.90;;;;;;5044383;28;20444;-50
2024/02/17 08:59:19;;;;;;;26.10;7.25;;;13.20;99.90;;;;;;5028734;28;20033;-50
2024/02/17 09:01:45;;;;;;;22.20;7.13;;;13.30;99.90;;;;;;5044897;28;20029;-50
2024/02/17 09:04:16;;;;;;;32.97;6.90;;;13.20;99.90;;;;;;5044784;28;20056;-51
2024/02/17 09:06:42;;;;;;;24.70;7.20;;;13.20;99.90;;;;;;5044747;28;20112;-51
2024/02/17 09:09:07;;;;;;;24.75;6.63;;;13.20;99.90;;;;;;5044675;28;20041;-51
2024/02/17 09:11:33;;;;;;;25.80;6.38;;;13.30;99.90;;;;;;5027950;28;20468;-50
2024/02/17 09:13:58;;;;;;;20.05;6.30;;;13.30;99.90;;;;;;5045825;28;20029;-50
2024/02/17 09:16:26;;;;;;;21.65;6.47;;;13.30;99.90;;;;;;5045979;28;20032;-51
2024/02/17 09:18:52;;;;;;;16.48;5.40;;;13.30;99.90;;;;;;5044738;28;20029;-50
2024/02/17 09:21:18;;;;;;;20.92;7.18;;;13.30;99.90;;;;;;5045698;28;20026;-50
2024/02/17 09:23:43;;;;;;;28.17;6.47;;;13.30;99.90;;;;;;5027949;28;20048;-50
2024/02/17 09:26:09;;;;;;;26.63;6.32;;;13.30;99.90;;;;;;5044366;28;20215;-50
2024/02/17 09:28:35;;;;;;;43.05;8.55;;;13.30;99.90;;;;;;5045858;28;20056;-50
2024/02/17 09:31:01;;;;;;;43.30;8.25;;;13.30;99.90;;;;;;5028063;28;20032;-50
2024/02/17 09:33:30;;;;;;;51.72;9.25;;;13.30;99.90;;;;;;5045130;28;20089;-50
2024/02/17 09:35:56;;;;;;;55.20;9.77;;;13.40;99.90;;;;;;5028077;28;20044;-50
2024/02/17 09:38:21;;;;;;;72.38;9.52;;;13.40;99.90;;;;;;5045623;28;20026;-51
2024/02/17 09:40:47;;;;;;;74.97;9.95;;;13.40;99.90;;;;;;5044314;28;20040;-50
2024/02/17 09:43:13;;;;;;;43.67;8.23;;;13.40;99.90;;;;;;5027515;28;20484;-50
2024/02/17 09:45:39;;;;;;;49.53;9.63;;;13.40;99.90;;;;;;5044449;28;20029;-50
2024/02/17 09:48:06;;;;;;;81.28;12.25;;;13.50;99.90;;;;;;5044351;28;20029;-50
2024/02/17 09:50:31;;;;;;;92.80;12.73;;;13.40;99.90;;;;;;5044184;28;20125;-50
2024/02/17 09:53:01;;;;;;;116.07;14.60;;;13.50;99.90;;;;;;5044044;28;20033;-50
2024/02/17 09:55:35;;;;;;;113.53;15.95;;;13.50;99.90;;;;;;5027525;28;20029;-50
2024/02/17 09:58:09;;;;;;;90.63;13.05;;;13.60;99.90;;;;;;5045086;28;20100;-50
2024/02/17 10:00:41;;;;;;;129.60;15.75;;;13.60;99.90;;;;;;5045158;28;20021;-50
2024/02/17 10:03:15;;;;;;;89.88;13.98;;;13.60;99.90;;;;;;5043678;28;20029;-50
2024/02/17 10:05:40;;;;;;;229.57;22.17;;;13.60;99.90;;;;;;5043768;28;20063;-50
2024/02/17 10:08:15;;;;;;;125.43;17.02;;;13.60;99.90;;;;;;5046647;28;20025;-50
2024/02/17 10:10:44;;;;;;;65.97;11.45;;;13.70;99.90;;;;;;5047353;28;20025;-50
2024/02/17 10:13:20;;;;;;;123.20;16.27;;;13.70;99.90;;;;;;5047512;28;20037;-50
2024/02/17 10:16:08;;;;;;;121.75;15.45;;;13.70;99.90;;;;;;5030961;28;20034;-51
2024/02/17 10:18:36;;;;;;;148.43;16.85;;;13.70;99.90;;;;;;5047501;28;20029;-50
2024/02/17 10:21:02;;;;;;;157.80;18.27;;;13.70;99.90;;;;;;5048436;28;20029;-51
2024/02/17 10:23:30;;;;;;;184.77;20.58;;;13.80;99.90;;;;;;5047419;28;20030;-50
2024/02/17 10:25:57;;;;;;;168.45;20.77;;;13.80;99.90;;;;;;5047047;28;20056;-50
2024/02/17 10:28:23;;;;;;;168.77;20.25;;;13.80;99.90;;;;;;5047123;28;20033;-50
2024/02/17 10:30:52;;;;;;;198.57;23.58;;;13.90;99.90;;;;;;5046612;28;20091;-50
2024/02/17 10:33:18;;;;;;;158.75;20.10;;;13.90;99.90;;;;;;5046871;28;20083;-50
2024/02/17 10:35:46;;;;;;;235.13;25.50;;;14.00;99.90;;;;;;5046902;28;20042;-50
2024/02/17 10:38:12;;;;;;;207.02;20.45;;;14.00;99.90;;;;;;5047035;28;20025;-50
2024/02/17 10:40:38;;;;;;;160.88;20.33;;;14.00;99.90;;;;;;5047122;28;20072;-50
2024/02/17 10:43:03;;;;;;;204.90;24.10;;;14.00;99.90;;;;;;5046696;28;20044;-50
2024/02/17 10:45:29;;;;;;;210.65;23.50;;;14.00;99.90;;;;;;5047993;28;20034;-50
2024/02/17 10:48:05;;;;;;;191.98;21.95;;;14.00;99.90;;;;;;5030199;28;20029;-50
2024/02/17 10:50:32;;;;;;;235.07;25.45;;;14.00;99.90;;;;;;5046697;28;20038;-50
2024/02/17 10:53:01;;;;;;;222.65;23.65;;;14.10;99.90;;;;;;5046555;28;20480;-51
2024/02/17 10:55:31;;;;;;;192.63;23.40;;;14.10;99.90;;;;;;5046650;28;20029;-50
2024/02/17 10:57:56;;;;;;;239.77;24.98;;;14.10;99.90;;;;;;5046610;28;20380;-50
2024/02/17 11:00:23;;;;;;;201.57;21.52;;;14.10;99.90;;;;;;5048026;28;20029;-50
2024/02/17 11:02:50;;;;;;;200.65;22.35;;;14.10;99.90;;;;;;5046504;28;20033;-50
2024/02/17 11:05:17;;;;;;;166.63;20.38;;;14.10;99.90;;;;;;5046860;28;20025;-50
2024/02/17 11:07:44;;;;;;;413.67;36.55;;;14.10;99.90;;;;;;5046669;28;20029;-50
2024/02/17 11:10:10;;;;;;;239.77;25.27;;;14.10;99.90;;;;;;5046097;28;20417;-50
2024/02/17 11:12:36;;;;;;;243.98;26.55;;;14.10;99.90;;;;;;5028634;28;20049;-50
2024/02/17 11:15:03;;;;;;;245.68;25.48;;;14.10;99.90;;;;;;5029040;28;20384;-50
2024/02/17 11:17:40;;;;;;;207.10;24.75;;;14.20;99.90;;;;;;5044946;28;20018;-50
2024/02/17 11:20:11;;;;;;;226.23;24.23;;;14.20;99.90;;;;;;5046452;28;20056;-50
2024/02/17 11:22:39;;;;;;;244.05;26.70;;;14.10;99.90;;;;;;5029837;28;20026;-50
2024/02/17 11:25:05;;;;;;;203.48;25.20;;;14.20;99.90;;;;;;5046201;28;20535;-50
2024/02/17 11:27:31;;;;;;;200.57;22.60;;;14.20;99.90;;;;;;5029202;28;20048;-50
2024/02/17 11:29:58;;;;;;;221.55;22.42;;;14.10;99.90;;;;;;5047251;28;20025;-50
2024/02/17 11:32:25;;;;;;;389.25;36.85;;;14.10;99.90;;;;;;5045409;28;20026;-50
2024/02/17 11:34:51;;;;;;;226.75;24.45;;;14.20;99.90;;;;;;5009966;28;20053;-50
2024/02/17 11:37:16;;;;;;;209.18;22.58;;;14.20;99.90;;;;;;5026349;28;20457;-50
2024/02/17 11:39:42;;;;;;;214.90;22.10;;;14.20;99.90;;;;;;5026338;28;20199;-50
2024/02/17 11:42:07;;;;;;;196.10;21.73;;;14.20;99.90;;;;;;5027351;28;20032;-50
2024/02/17 11:44:33;;;;;;;182.68;20.17;;;14.20;99.90;;;;;;5013020;28;20030;-50
2024/02/17 11:46:59;;;;;;;173.98;19.58;;;14.20;99.90;;;;;;5028487;28;20029;-50
2024/02/17 11:49:26;;;;;;;216.43;22.20;;;14.20;99.90;;;;;;5035177;28;20038;-50
2024/02/17 11:51:52;;;;;;;228.40;25.83;;;14.20;99.90;;;;;;5038407;28;20033;-50
2024/02/17 11:54:18;;;;;;;226.27;25.25;;;14.20;99.90;;;;;;5043339;28;20041;-51
2024/02/17 11:56:43;;;;;;;202.07;23.52;;;14.20;99.90;;;;;;5047146;28;20081;-50
2024/02/17 11:59:10;;;;;;;128.13;15.27;;;14.20;99.90;;;;;;5043916;28;20085;-50
2024/02/17 12:01:36;;;;;;;131.30;17.40;;;14.20;99.90;;;;;;5009371;28;20052;-50
2024/02/17 12:04:03;;;;;;;138.38;15.63;;;14.20;99.90;;;;;;5041689;28;20025;-50
2024/02/17 12:06:28;;;;;;;153.80;19.80;;;14.20;99.90;;;;;;5042513;28;20035;-50
2024/02/17 12:08:54;;;;;;;206.75;21.63;;;14.30;99.90;;;;;;5044656;28;20108;-50
2024/02/17 12:11:20;;;;;;;213.30;23.73;;;14.30;99.90;;;;;;5044163;28;20045;-50
2024/02/17 12:13:46;;;;;;;200.43;22.42;;;14.30;99.90;;;;;;5028008;28;20030;-50
2024/02/17 12:16:12;;;;;;;176.73;21.00;;;14.30;99.90;;;;;;5008122;28;20089;-50
2024/02/17 12:18:38;;;;;;;188.02;21.17;;;14.30;99.90;;;;;;5027994;28;20036;-50
2024/02/17 12:21:07;;;;;;;138.23;18.95;;;14.30;99.90;;;;;;5038001;28;20030;-50
2024/02/17 12:23:36;;;;;;;173.32;20.35;;;14.30;99.90;;;;;;5043186;28;20025;-50
2024/02/17 12:26:03;;;;;;;142.80;17.65;;;14.40;99.90;;;;;;5043797;28;20025;-50
2024/02/17 12:28:30;;;;;;;148.77;17.65;;;14.40;99.90;;;;;;5027137;28;20021;-50
2024/02/17 12:30:56;;;;;;;142.07;17.77;;;14.40;99.90;;;;;;5042126;28;20033;-50
2024/02/17 12:33:22;;;;;;;122.55;17.50;;;14.40;99.90;;;;;;5024475;28;20037;-50